Time;durP1;ratioP1;P1;durP2;ratioP2;P2;SDS_P1;SDS_P2;PMS_P1;PMS_P2;Temp;Humidity;BMP_temperature;BMP_pressure;BME280_temperature;BME280_humidity;BME280_pressure;Samples;Min_cycle;Max_cycle;Signal;HPM_P1;HPM_P2
2023/01/24 00:00:15;;;;;;;10.23;9.23;;;;;20.40;102541.00;;;;2083983;28;20219;-68
2023/01/24 00:01:15;;;;;;;10.00;8.97;;;;;20.40;102534.00;;;;2084833;28;20672;-68
2023/01/24 00:02:15;;;;;;;10.97;9.87;;;;;20.40;102552.00;;;;2085650;28;20713;-68
2023/01/24 00:03:16;;;;;;;10.27;9.27;;;;;20.30;102546.00;;;;2085790;28;20253;-68
2023/01/24 00:04:16;;;;;;;10.17;8.60;;;;;20.40;102554.00;;;;2076695;28;20267;-68
2023/01/24 00:05:16;;;;;;;10.63;9.57;;;;;20.40;102550.00;;;;2068532;28;20222;-68
2023/01/24 00:06:17;;;;;;;10.23;9.23;;;;;20.40;102552.00;;;;2084391;28;20247;-67
2023/01/24 00:07:17;;;;;;;9.20;8.30;;;;;20.30;102539.00;;;;2084749;28;20217;-68
2023/01/24 00:08:24;;;;;;;9.77;8.87;;;;;20.30;102552.00;;;;2084395;28;20219;-68
2023/01/24 00:09:25;;;;;;;9.60;8.65;;;;;20.30;102550.00;;;;2084378;28;20210;-68
2023/01/24 00:10:25;;;;;;;10.50;9.40;;;;;20.30;102550.00;;;;2085019;28;20248;-68
2023/01/24 00:11:25;;;;;;;9.30;8.40;;;;;20.30;102554.00;;;;2085487;28;20214;-67
2023/01/24 00:12:26;;;;;;;8.07;7.37;;;;;20.30;102545.00;;;;2085651;28;20216;-68
2023/01/24 00:13:26;;;;;;;11.47;8.93;;;;;20.30;102549.00;;;;2084655;28;20292;-68
2023/01/24 00:14:26;;;;;;;9.40;8.50;;;;;20.20;102543.00;;;;2081287;28;20209;-68
2023/01/24 00:15:27;;;;;;;9.50;8.60;;;;;20.30;102556.00;;;;2085553;28;20702;-68
2023/01/24 00:16:27;;;;;;;8.83;8.03;;;;;20.30;102554.00;;;;2085458;28;20573;-68
2023/01/24 00:17:27;;;;;;;8.40;7.60;;;;;20.30;102547.00;;;;2085739;28;20687;-68
2023/01/24 00:18:28;;;;;;;9.03;8.13;;;;;20.30;102553.00;;;;2076264;28;20719;-68
2023/01/24 00:19:28;;;;;;;8.50;7.70;;;;;20.30;102552.00;;;;2076646;28;20702;-67
2023/01/24 00:20:28;;;;;;;8.27;7.50;;;;;20.20;102551.00;;;;2084412;28;20213;-67
2023/01/24 00:21:29;;;;;;;9.43;8.43;;;;;20.30;102545.00;;;;2084515;28;20216;-68
2023/01/24 00:22:29;;;;;;;9.37;8.47;;;;;20.20;102553.00;;;;2084905;28;20228;-68
2023/01/24 00:23:29;;;;;;;10.17;7.60;;;;;20.30;102554.00;;;;2084615;28;20207;-67
2023/01/24 00:24:32;;;;;;;8.23;7.43;;;;;20.40;102551.00;;;;2075745;28;20205;-69
2023/01/24 00:25:33;;;;;;;8.65;7.85;;;;;20.40;102548.00;;;;2075518;28;20721;-69
2023/01/24 00:26:33;;;;;;;8.97;7.77;;;;;20.40;102557.00;;;;2085387;28;20223;-68
2023/01/24 00:27:34;;;;;;;8.00;7.20;;;;;20.40;102548.00;;;;2085271;28;20209;-67
2023/01/24 00:28:35;;;;;;;10.85;7.40;;;;;20.30;102557.00;;;;2084758;28;20586;-67
2023/01/24 00:29:35;;;;;;;8.37;7.53;;;;;20.30;102555.00;;;;2085275;28;20209;-67
2023/01/24 00:30:35;;;;;;;11.13;8.20;;;;;20.30;102545.00;;;;2084783;28;20228;-67
2023/01/24 00:31:36;;;;;;;9.43;8.07;;;;;20.30;102551.00;;;;2084700;28;20204;-66
2023/01/24 00:32:36;;;;;;;8.80;8.00;;;;;20.30;102554.00;;;;2084387;28;20236;-67
2023/01/24 00:33:36;;;;;;;7.60;6.90;;;;;20.30;102551.00;;;;2084601;28;20225;-67
2023/01/24 00:34:37;;;;;;;9.30;7.43;;;;;20.30;102547.00;;;;2084755;28;20213;-67
2023/01/24 00:35:37;;;;;;;8.00;7.20;;;;;20.40;102552.00;;;;2085278;28;20347;-67
2023/01/24 00:36:37;;;;;;;10.57;7.30;;;;;20.30;102554.00;;;;2084997;28;20221;-67
2023/01/24 00:37:38;;;;;;;7.67;6.93;;;;;20.30;102548.00;;;;2085417;28;20208;-66
2023/01/24 00:38:38;;;;;;;7.63;6.83;;;;;20.30;102553.00;;;;2084966;28;20225;-67
2023/01/24 00:39:38;;;;;;;9.60;7.97;;;;;20.30;102554.00;;;;2084479;28;20312;-67
2023/01/24 00:40:39;;;;;;;9.73;7.40;;;;;20.30;102550.00;;;;2084296;28;20718;-67
2023/01/24 00:41:39;;;;;;;9.20;7.20;;;;;20.30;102539.00;;;;2084311;28;20683;-67
2023/01/24 00:42:39;;;;;;;7.80;7.00;;;;;20.30;102548.00;;;;2084407;28;20718;-67
2023/01/24 00:43:40;;;;;;;8.20;7.30;;;;;20.30;102548.00;;;;2084569;28;20213;-67
2023/01/24 00:44:40;;;;;;;7.83;6.97;;;;;20.30;102542.00;;;;2085135;28;20248;-67
2023/01/24 00:45:40;;;;;;;6.80;6.10;;;;;20.30;102546.00;;;;2081396;28;20209;-67
2023/01/24 00:46:41;;;;;;;6.90;6.30;;;;;20.20;102546.00;;;;2092835;28;20250;-67
2023/01/24 00:47:41;;;;;;;7.23;6.53;;;;;20.30;102539.00;;;;2086417;28;20217;-67
2023/01/24 00:48:41;;;;;;;6.90;6.20;;;;;20.20;102538.00;;;;2083957;28;20220;-67
2023/01/24 00:49:42;;;;;;;7.93;6.60;;;;;20.20;102542.00;;;;2083970;28;20571;-66
2023/01/24 00:50:42;;;;;;;7.77;6.47;;;;;20.20;102533.00;;;;2084101;28;20693;-67
2023/01/24 00:51:42;;;;;;;9.07;7.00;;;;;20.20;102530.00;;;;2084223;28;20713;-67
2023/01/24 00:52:43;;;;;;;6.37;5.77;;;;;20.20;102530.00;;;;2085015;28;20206;-67
2023/01/24 00:53:43;;;;;;;7.50;6.80;;;;;20.20;102521.00;;;;2084347;28;20217;-67
2023/01/24 00:54:43;;;;;;;6.97;6.27;;;;;20.20;102526.00;;;;2084003;28;20220;-67
2023/01/24 00:55:44;;;;;;;7.63;6.83;;;;;20.30;102523.00;;;;2085041;28;20217;-67
2023/01/24 00:56:44;;;;;;;6.37;5.77;;;;;20.20;102523.00;;;;2084353;28;20210;-67
2023/01/24 00:57:45;;;;;;;6.70;6.00;;;;;20.20;102506.00;;;;2084340;28;20225;-67
2023/01/24 00:58:45;;;;;;;7.20;6.50;;;;;20.20;102523.00;;;;2084095;28;20628;-67
2023/01/24 00:59:45;;;;;;;7.47;5.90;;;;;20.20;102527.00;;;;2084127;28;20643;-67
2023/01/24 01:00:46;;;;;;;8.73;6.30;;;;;20.20;102526.00;;;;2084391;28;20749;-67
2023/01/24 01:01:46;;;;;;;7.63;6.43;;;;;20.20;102526.00;;;;2084230;28;20823;-67
2023/01/24 01:02:47;;;;;;;6.30;5.63;;;;;20.20;102529.00;;;;2084004;28;20216;-67
2023/01/24 01:03:48;;;;;;;6.63;6.03;;;;;20.20;102520.00;;;;2084094;28;20225;-67
2023/01/24 01:04:48;;;;;;;6.20;5.60;;;;;20.20;102527.00;;;;2084347;28;20296;-67
2023/01/24 01:05:48;;;;;;;7.13;6.43;;;;;20.20;102522.00;;;;2084648;28;20669;-67
2023/01/24 01:06:49;;;;;;;6.50;5.90;;;;;20.20;102530.00;;;;2084760;28;20272;-67
2023/01/24 01:07:49;;;;;;;7.33;6.40;;;;;20.20;102537.00;;;;2084954;28;20212;-67
2023/01/24 01:08:50;;;;;;;6.30;5.70;;;;;20.20;102527.00;;;;2084550;28;20275;-67
2023/01/24 01:09:50;;;;;;;6.43;5.83;;;;;20.20;102536.00;;;;2083272;28;20919;-67
2023/01/24 01:10:50;;;;;;;6.70;5.80;;;;;20.20;102534.00;;;;2083193;28;20668;-67
2023/01/24 01:11:51;;;;;;;6.40;5.80;;;;;20.20;102544.00;;;;2084075;28;20673;-67
2023/01/24 01:12:51;;;;;;;6.53;5.90;;;;;20.20;102540.00;;;;2084110;28;20624;-67
2023/01/24 01:13:56;;;;;;;6.20;5.70;;;;;20.10;102541.00;;;;2077028;28;20697;-67
2023/01/24 01:14:57;;;;;;;6.30;5.70;;;;;20.20;102542.00;;;;2082570;28;20308;-67
2023/01/24 01:16:09;;;;;;;5.40;4.90;;;;;20.10;102548.00;;;;2084932;28;20208;-67
2023/01/24 01:17:09;;;;;;;5.57;5.07;;;;;20.20;102544.00;;;;2083131;28;20220;-67
2023/01/24 01:18:09;;;;;;;6.43;5.87;;;;;20.10;102545.00;;;;2083157;28;20209;-67
2023/01/24 01:19:10;;;;;;;5.90;5.40;;;;;20.10;102536.00;;;;2083843;28;20291;-67
2023/01/24 01:20:11;;;;;;;5.70;5.20;;;;;20.10;102544.00;;;;2082036;28;20228;-67
2023/01/24 01:21:12;;;;;;;6.13;5.53;;;;;20.10;102539.00;;;;2075910;28;20245;-67
2023/01/24 01:22:12;;;;;;;6.28;5.68;;;;;20.20;102547.00;;;;2083167;28;20464;-67
2023/01/24 01:23:13;;;;;;;5.90;5.30;;;;;20.10;102543.00;;;;2084244;28;20702;-66
2023/01/24 01:24:13;;;;;;;6.00;5.50;;;;;20.10;102543.00;;;;2083238;28;20240;-66
2023/01/24 01:25:13;;;;;;;6.00;5.50;;;;;20.10;102542.00;;;;2083353;28;20231;-67
2023/01/24 01:26:16;;;;;;;6.40;5.37;;;;;20.00;102553.00;;;;2083658;28;20214;-67
2023/01/24 01:27:16;;;;;;;6.55;5.22;;;;;20.10;102543.00;;;;2082756;28;20276;-67
2023/01/24 01:28:16;;;;;;;5.47;5.00;;;;;20.10;102543.00;;;;2084023;28;20225;-67
2023/01/24 01:29:17;;;;;;;6.30;5.70;;;;;20.10;102543.00;;;;2084444;28;20451;-67
2023/01/24 01:30:17;;;;;;;5.60;5.10;;;;;20.10;102547.00;;;;2084419;28;20284;-67
2023/01/24 01:31:17;;;;;;;5.37;4.87;;;;;20.10;102550.00;;;;2084137;28;20238;-67
2023/01/24 01:32:18;;;;;;;5.73;4.83;;;;;20.10;102550.00;;;;2083539;28;20223;-66
2023/01/24 01:33:18;;;;;;;5.60;5.10;;;;;20.00;102549.00;;;;2081132;28;20256;-67
2023/01/24 01:34:18;;;;;;;5.53;5.03;;;;;20.00;102554.00;;;;2084469;28;20218;-67
2023/01/24 01:35:19;;;;;;;5.17;4.77;;;;;20.00;102552.00;;;;2084751;28;20224;-67
2023/01/24 01:36:19;;;;;;;5.53;5.03;;;;;20.10;102552.00;;;;2084319;28;20220;-67
2023/01/24 01:37:19;;;;;;;5.67;5.17;;;;;20.00;102557.00;;;;2084104;28;20646;-66
2023/01/24 01:38:20;;;;;;;5.87;4.83;;;;;20.00;102563.00;;;;2083735;28;20271;-67
2023/01/24 01:39:20;;;;;;;4.40;4.00;;;;;20.00;102551.00;;;;2085997;28;20225;-67
2023/01/24 01:40:20;;;;;;;5.93;5.33;;;;;20.00;102556.00;;;;2084407;28;20221;-67
2023/01/24 01:41:21;;;;;;;5.40;4.93;;;;;20.00;102555.00;;;;2084005;28;20217;-67
2023/01/24 01:42:21;;;;;;;5.70;5.20;;;;;20.00;102561.00;;;;2083936;28;20208;-67
2023/01/24 01:43:23;;;;;;;5.40;4.90;;;;;20.00;102553.00;;;;2083997;28;20265;-67
2023/01/24 01:44:38;;;;;;;5.50;4.97;;;;;20.00;102558.00;;;;2083833;28;20225;-67
2023/01/24 01:45:44;;;;;;;5.50;5.00;;;;;20.00;102547.00;;;;2084768;28;20208;-67
2023/01/24 01:46:47;;;;;;;5.25;4.80;;;;;19.90;102555.00;;;;2081317;28;20213;-67
2023/01/24 01:47:47;;;;;;;5.32;4.82;;;;;19.90;102548.00;;;;2084732;28;20210;-67
2023/01/24 01:48:49;;;;;;;5.47;5.00;;;;;20.00;102544.00;;;;2084449;28;20244;-66
2023/01/24 01:50:01;;;;;;;5.10;4.60;;;;;20.00;102551.00;;;;2075847;28;20276;-66
2023/01/24 01:51:11;;;;;;;5.88;5.28;;;;;19.90;102547.00;;;;2074757;28;20229;-67
2023/01/24 01:52:11;;;;;;;4.90;4.50;;;;;19.90;102549.00;;;;2083373;28;20224;-68
2023/01/24 01:53:11;;;;;;;5.53;5.03;;;;;19.90;102547.00;;;;2081908;28;20566;-67
2023/01/24 01:54:18;;;;;;;4.83;4.43;;;;;20.00;102548.00;;;;2076415;28;20580;-67
2023/01/24 01:55:19;;;;;;;4.60;4.20;;;;;19.90;102557.00;;;;2076761;28;20295;-67
2023/01/24 01:56:28;;;;;;;15.57;5.03;;;;;19.90;102545.00;;;;2077619;28;20210;-67
2023/01/24 01:57:30;;;;;;;4.82;4.40;;;;;19.90;102540.00;;;;2068554;28;20224;-68
2023/01/24 01:58:30;;;;;;;5.03;4.53;;;;;19.90;102548.00;;;;2076295;28;20301;-66
2023/01/24 01:59:32;;;;;;;9.80;4.60;;;;;19.90;102550.00;;;;2065780;28;20226;-66
2023/01/24 02:00:33;;;;;;;6.45;5.25;;;;;19.90;102541.00;;;;2058919;28;20223;-66
2023/01/24 02:01:33;;;;;;;4.97;4.43;;;;;20.00;102543.00;;;;2059201;28;20328;-67
2023/01/24 02:02:33;;;;;;;5.93;4.10;;;;;20.00;102534.00;;;;2063245;28;20301;-67
2023/01/24 02:03:40;;;;;;;5.10;4.60;;;;;20.00;102552.00;;;;2075226;28;20648;-67
2023/01/24 02:04:43;;;;;;;4.72;4.10;;;;;20.00;102555.00;;;;2074860;28;20315;-68
2023/01/24 02:05:43;;;;;;;4.95;4.43;;;;;20.00;102550.00;;;;2084123;28;20283;-67
2023/01/24 02:06:54;;;;;;;5.20;4.70;;;;;20.00;102550.00;;;;2077460;28;20209;-67
2023/01/24 02:07:59;;;;;;;4.60;4.20;;;;;19.90;102537.00;;;;2076337;28;20581;-67
2023/01/24 02:08:59;;;;;;;4.63;4.22;;;;;19.90;102549.00;;;;2072613;28;20230;-66
2023/01/24 02:09:59;;;;;;;6.47;4.43;;;;;20.00;102535.00;;;;2078476;28;20243;-67
2023/01/24 02:12:21;;;;;;;4.65;4.25;;;;;19.90;102530.00;;;;2087230;28;20220;-66
2023/01/24 02:13:22;;;;;;;6.25;4.75;;;;;19.90;102539.00;;;;2075806;28;20223;-66
2023/01/24 02:17:00;;;;;;;4.97;4.53;;;;;19.90;102538.00;;;;2080215;28;20229;-66
2023/01/24 02:18:03;;;;;;;4.87;4.37;;;;;19.90;102527.00;;;;2068395;28;20227;-67
2023/01/24 02:19:03;;;;;;;4.82;4.38;;;;;19.90;102525.00;;;;2070518;28;20605;-66
2023/01/24 02:20:18;;;;;;;4.60;3.97;;;;;20.00;102530.00;;;;2075087;28;20214;-67
2023/01/24 02:21:19;;;;;;;4.80;4.32;;;;;19.90;102534.00;;;;2077502;28;20217;-66
2023/01/24 02:22:25;;;;;;;4.37;3.90;;;;;19.90;102537.00;;;;2088751;28;20696;-66
2023/01/24 02:23:56;;;;;;;4.40;3.78;;;;;19.90;102528.00;;;;2088316;28;20209;-66
2023/01/24 02:25:13;;;;;;;4.38;3.95;;;;;19.90;102530.00;;;;2087513;28;20668;-65
2023/01/24 02:26:17;;;;;;;4.40;4.00;;;;;20.00;102541.00;;;;2084657;28;20220;-67
2023/01/24 02:27:18;;;;;;;4.82;4.32;;;;;19.90;102527.00;;;;2076370;28;20226;-66
2023/01/24 02:28:18;;;;;;;4.77;4.30;;;;;19.90;102538.00;;;;2063395;28;20815;-67
2023/01/24 02:29:18;;;;;;;3.97;3.57;;;;;19.90;102529.00;;;;2059507;28;20697;-65
2023/01/24 02:30:20;;;;;;;4.68;4.28;;;;;19.90;102537.00;;;;2068058;28;20717;-66
2023/01/24 02:31:20;;;;;;;4.90;4.20;;;;;19.90;102529.00;;;;2076718;28;20212;-67
2023/01/24 02:32:21;;;;;;;3.97;3.57;;;;;19.90;102528.00;;;;2085339;28;20214;-66
2023/01/24 02:33:21;;;;;;;4.20;3.80;;;;;19.90;102533.00;;;;2085379;28;20211;-66
2023/01/24 02:34:21;;;;;;;3.77;3.43;;;;;19.90;102534.00;;;;2085277;28;20229;-67
2023/01/24 02:35:29;;;;;;;4.13;3.80;;;;;19.80;102538.00;;;;2084412;28;20216;-67
2023/01/24 02:36:34;;;;;;;4.30;3.90;;;;;19.90;102527.00;;;;2083490;28;20728;-67
2023/01/24 02:37:35;;;;;;;3.72;3.42;;;;;19.80;102527.00;;;;2076630;28;20206;-67
2023/01/24 02:38:35;;;;;;;5.00;4.20;;;;;19.80;102531.00;;;;2075528;28;20214;-67
2023/01/24 02:39:46;;;;;;;4.80;3.73;;;;;19.90;102523.00;;;;2075899;28;20301;-67
2023/01/24 02:40:47;;;;;;;4.43;4.03;;;;;19.90;102505.00;;;;2083232;28;20216;-67
2023/01/24 02:41:49;;;;;;;5.22;4.00;;;;;19.90;102526.00;;;;2058545;28;20226;-66
2023/01/24 02:42:50;;;;;;;4.38;3.97;;;;;19.90;102520.00;;;;2051552;28;20212;-67
2023/01/24 02:43:50;;;;;;;4.20;3.80;;;;;19.90;102521.00;;;;2058006;28;20289;-67
2023/01/24 02:44:57;;;;;;;4.00;3.70;;;;;19.90;102518.00;;;;2070943;28;20206;-66
2023/01/24 02:45:57;;;;;;;4.05;3.65;;;;;19.80;102516.00;;;;2067573;28;20250;-67
2023/01/24 02:46:57;;;;;;;3.80;3.50;;;;;19.80;102492.00;;;;2076097;28;20210;-67
2023/01/24 02:47:57;;;;;;;3.70;3.23;;;;;19.80;102522.00;;;;2080398;28;20213;-67
2023/01/24 02:48:58;;;;;;;4.00;3.60;;;;;19.80;102530.00;;;;2081720;28;20265;-67
2023/01/24 02:49:59;;;;;;;3.67;3.37;;;;;19.80;102523.00;;;;2083380;28;20213;-67
2023/01/24 02:53:39;;;;;;;4.20;3.80;;;;;19.80;102523.00;;;;2082948;28;20236;-67
2023/01/24 02:54:39;;;;;;;4.03;3.65;;;;;19.80;102524.00;;;;2082541;28;20217;-67
2023/01/24 02:58:17;;;;;;;4.40;4.00;;;;;19.80;102523.00;;;;2082544;28;20217;-67
2023/01/24 02:59:17;;;;;;;3.97;3.63;;;;;19.80;102524.00;;;;2083493;28;20249;-67
2023/01/24 03:00:18;;;;;;;3.60;3.30;;;;;19.80;102525.00;;;;2083939;28;20224;-67
2023/01/24 03:01:19;;;;;;;7.00;4.00;;;;;19.80;102533.00;;;;2083965;28;20208;-68
2023/01/24 03:02:19;;;;;;;5.35;4.22;;;;;19.80;102534.00;;;;2074527;28;20213;-67
2023/01/24 03:03:19;;;;;;;5.30;3.80;;;;;19.60;102523.00;;;;2073902;28;20217;-68
2023/01/24 03:04:20;;;;;;;4.90;4.50;;;;;19.60;102526.00;;;;2083003;28;20306;-67
2023/01/24 03:05:20;;;;;;;5.53;4.43;;;;;19.50;102526.00;;;;2083238;28;20233;-68
2023/01/24 03:06:20;;;;;;;5.70;3.47;;;;;19.50;102526.00;;;;2082954;28;20205;-68
2023/01/24 03:07:21;;;;;;;5.60;4.20;;;;;19.40;102531.00;;;;2083741;28;20217;-68
2023/01/24 03:08:22;;;;;;;4.30;3.87;;;;;19.30;102525.00;;;;2083216;28;20217;-67
2023/01/24 03:09:33;;;;;;;6.43;4.18;;;;;19.40;102520.00;;;;2083084;28;20255;-68
2023/01/24 03:10:34;;;;;;;7.72;3.50;;;;;19.30;102519.00;;;;2082631;28;20232;-68
2023/01/24 03:11:34;;;;;;;5.25;4.07;;;;;19.30;102516.00;;;;2082077;28;20235;-68
2023/01/24 03:34:55;;;;;;;3.90;3.60;;;;;19.10;102512.00;;;;2082913;28;20209;-69
2023/01/24 03:35:56;;;;;;;3.83;3.53;;;;;19.00;102512.00;;;;2083137;28;20214;-68
2023/01/24 03:36:56;;;;;;;3.50;3.20;;;;;19.10;102504.00;;;;2083282;28;20230;-68
2023/01/24 03:40:35;;;;;;;3.65;3.35;;;;;19.10;102512.00;;;;2083394;28;20300;-68
2023/01/24 03:41:35;;;;;;;3.63;3.33;;;;;19.10;102503.00;;;;2084097;28;20676;-68
2023/01/24 03:42:47;;;;;;;3.73;3.43;;;;;19.10;102514.00;;;;2083951;28;20209;-68
2023/01/24 03:43:47;;;;;;;3.90;3.60;;;;;19.10;102509.00;;;;2085992;28;20208;-68
2023/01/24 03:44:48;;;;;;;3.73;3.27;;;;;19.10;102517.00;;;;2082021;28;20228;-68
2023/01/24 03:45:51;;;;;;;3.60;3.30;;;;;19.10;102474.00;;;;2083137;28;20221;-68
2023/01/24 03:46:52;;;;;;;3.50;3.20;;;;;19.10;102520.00;;;;2081404;28;20308;-68
2023/01/24 03:47:56;;;;;;;4.20;3.90;;;;;19.00;102518.00;;;;2075851;28;20217;-68
2023/01/24 03:48:57;;;;;;;4.45;4.05;;;;;19.00;102524.00;;;;2074874;28;20284;-68
2023/01/24 03:52:35;;;;;;;3.95;3.65;;;;;19.00;102519.00;;;;2082920;28;20214;-68
2023/01/24 03:53:35;;;;;;;4.30;3.57;;;;;19.00;102525.00;;;;2082951;28;20210;-68
2023/01/24 03:54:35;;;;;;;3.10;2.90;;;;;19.00;102516.00;;;;2083857;28;20223;-68
2023/01/24 03:55:36;;;;;;;3.77;3.47;;;;;19.00;102520.00;;;;2084198;28;20221;-67
2023/01/24 03:56:36;;;;;;;4.53;3.50;;;;;19.00;102522.00;;;;2074213;28;20210;-68
2023/01/24 03:57:36;;;;;;;3.47;3.17;;;;;19.00;102519.00;;;;2074252;28;20202;-68
2023/01/24 03:58:37;;;;;;;4.10;3.73;;;;;19.00;102533.00;;;;2083400;28;20209;-68
2023/01/24 03:59:37;;;;;;;3.90;3.60;;;;;19.00;102523.00;;;;2083939;28;20214;-67
2023/01/24 04:00:38;;;;;;;3.67;3.37;;;;;19.00;102524.00;;;;2083812;28;20264;-68
2023/01/24 04:01:38;;;;;;;3.93;3.53;;;;;19.00;102520.00;;;;2083900;28;20209;-68
2023/01/24 04:02:38;;;;;;;3.93;3.20;;;;;19.00;102520.00;;;;2083238;28;20226;-68
2023/01/24 04:03:38;;;;;;;3.93;3.50;;;;;19.00;102526.00;;;;2083163;28;20240;-68
2023/01/24 04:05:58;;;;;;;3.70;3.40;;;;;19.00;102523.00;;;;2082728;28;20205;-68
2023/01/24 04:06:58;;;;;;;3.50;3.20;;;;;19.00;102517.00;;;;2082942;28;20213;-68
2023/01/24 04:07:58;;;;;;;3.67;3.37;;;;;19.00;102519.00;;;;2082811;28;20220;-68
2023/01/24 04:08:59;;;;;;;3.40;3.10;;;;;19.00;102519.00;;;;2083334;28;20226;-67
2023/01/24 04:09:59;;;;;;;3.50;3.20;;;;;18.90;102524.00;;;;2083815;28;20233;-68
2023/01/24 04:10:59;;;;;;;3.77;3.47;;;;;19.00;102519.00;;;;2083883;28;20776;-68
2023/01/24 04:12:00;;;;;;;3.87;3.57;;;;;18.90;102520.00;;;;2083633;28;20209;-68
2023/01/24 04:13:00;;;;;;;3.93;3.53;;;;;18.90;102513.00;;;;2083136;28;20217;-68
2023/01/24 04:14:00;;;;;;;4.00;3.70;;;;;18.90;102511.00;;;;2082825;28;20232;-68
2023/01/24 04:15:01;;;;;;;3.80;3.50;;;;;18.90;102518.00;;;;2083509;28;20255;-69
2023/01/24 04:16:01;;;;;;;3.83;3.53;;;;;18.90;102513.00;;;;2084497;28;20217;-68
2023/01/24 04:17:01;;;;;;;3.67;3.37;;;;;18.90;102509.00;;;;2084649;28;20211;-69
2023/01/24 04:18:03;;;;;;;4.00;3.60;;;;;18.90;102515.00;;;;2084187;28;20237;-69
2023/01/24 04:19:03;;;;;;;4.30;3.80;;;;;18.90;102516.00;;;;2076541;28;20276;-68
2023/01/24 04:20:04;;;;;;;3.30;3.00;;;;;18.90;102514.00;;;;2084618;28;20713;-68
2023/01/24 04:21:04;;;;;;;3.90;3.50;;;;;18.90;102509.00;;;;2084970;28;20730;-68
2023/01/24 04:22:05;;;;;;;3.53;3.23;;;;;18.90;102510.00;;;;2083782;28;20223;-68
2023/01/24 04:23:06;;;;;;;3.60;3.27;;;;;18.90;102519.00;;;;2075263;28;20289;-68
2023/01/24 04:24:06;;;;;;;3.42;3.13;;;;;18.90;102505.00;;;;2075456;28;20222;-68
2023/01/24 04:25:07;;;;;;;3.33;3.03;;;;;18.90;102499.00;;;;2083583;28;20640;-68
2023/01/24 04:26:08;;;;;;;3.90;3.60;;;;;18.90;102517.00;;;;2084398;28;20618;-68
2023/01/24 04:27:08;;;;;;;3.50;3.20;;;;;18.90;102508.00;;;;2075878;28;21050;-68
2023/01/24 04:28:08;;;;;;;3.30;3.00;;;;;18.90;102502.00;;;;2082173;28;20213;-68
2023/01/24 04:29:09;;;;;;;3.17;2.97;;;;;18.90;102503.00;;;;2083608;28;21017;-67
2023/01/24 04:30:10;;;;;;;3.27;2.97;;;;;18.90;102508.00;;;;2075392;28;20220;-68
2023/01/24 04:31:10;;;;;;;3.55;3.25;;;;;18.90;102493.00;;;;2083805;28;20228;-68
2023/01/24 04:32:11;;;;;;;3.50;3.10;;;;;18.90;102509.00;;;;2084310;28;20248;-67
2023/01/24 04:33:11;;;;;;;3.70;3.40;;;;;18.90;102506.00;;;;2084240;28;20288;-68
2023/01/24 04:34:11;;;;;;;3.00;2.80;;;;;18.80;102513.00;;;;2084927;28;20750;-68
2023/01/24 04:35:23;;;;;;;3.20;2.90;;;;;18.80;102512.00;;;;2084457;28;20217;-68
2023/01/24 04:36:23;;;;;;;3.50;3.20;;;;;18.90;102502.00;;;;2077151;28;20222;-68
2023/01/24 04:37:23;;;;;;;3.33;3.03;;;;;18.80;102503.00;;;;2079658;28;20732;-68
2023/01/24 04:38:24;;;;;;;3.97;3.67;;;;;18.80;102509.00;;;;2079660;28;20762;-68
2023/01/24 04:39:24;;;;;;;3.87;3.53;;;;;18.80;102503.00;;;;2083376;28;20214;-68
2023/01/24 04:40:24;;;;;;;3.80;3.50;;;;;18.80;102513.00;;;;2084504;28;20213;-68
2023/01/24 04:41:25;;;;;;;2.93;2.73;;;;;18.80;102506.00;;;;2078885;28;20214;-68
2023/01/24 04:42:25;;;;;;;3.80;3.50;;;;;18.80;102518.00;;;;2085068;28;20220;-67
2023/01/24 04:43:25;;;;;;;3.53;3.23;;;;;18.80;102516.00;;;;2084965;28;20440;-68
2023/01/24 04:44:26;;;;;;;3.93;3.63;;;;;18.80;102512.00;;;;2084929;28;20204;-68
2023/01/24 04:45:26;;;;;;;3.97;3.40;;;;;18.80;102520.00;;;;2083673;28;20715;-68
2023/01/24 04:46:27;;;;;;;4.00;3.63;;;;;18.70;102527.00;;;;2083582;28;20707;-68
2023/01/24 04:47:28;;;;;;;3.95;3.65;;;;;18.80;102516.00;;;;2084272;28;20212;-68
2023/01/24 04:48:28;;;;;;;3.30;3.00;;;;;18.80;102524.00;;;;2082346;28;20617;-68
2023/01/24 04:49:28;;;;;;;3.70;3.40;;;;;18.80;102529.00;;;;2083855;28;20631;-68
2023/01/24 04:50:29;;;;;;;3.73;3.43;;;;;18.80;102524.00;;;;2083113;28;20217;-68
2023/01/24 04:51:29;;;;;;;3.47;3.17;;;;;18.80;102527.00;;;;2083723;28;20217;-68
2023/01/24 04:52:29;;;;;;;3.70;3.40;;;;;18.80;102517.00;;;;2084636;28;20267;-68
2023/01/24 04:53:30;;;;;;;3.77;3.47;;;;;18.80;102515.00;;;;2084082;28;20221;-68
2023/01/24 04:54:30;;;;;;;3.50;3.20;;;;;18.80;102518.00;;;;2083485;28;20219;-67
2023/01/24 04:55:30;;;;;;;3.23;2.93;;;;;18.80;102515.00;;;;2074340;28;20223;-68
2023/01/24 04:56:31;;;;;;;3.57;3.27;;;;;18.80;102478.00;;;;2083388;28;20214;-68
2023/01/24 04:57:31;;;;;;;3.97;3.47;;;;;18.70;102512.00;;;;2077641;28;20240;-68
2023/01/24 04:58:31;;;;;;;3.87;3.57;;;;;18.60;102516.00;;;;2091680;28;20212;-68
2023/01/24 04:59:32;;;;;;;3.40;3.10;;;;;18.80;102518.00;;;;2078302;28;20228;-68
2023/01/24 05:00:32;;;;;;;4.70;3.80;;;;;18.80;102514.00;;;;2083509;28;20212;-68
2023/01/24 05:01:32;;;;;;;3.50;3.20;;;;;18.80;102495.00;;;;2083086;28;20303;-68
2023/01/24 05:02:33;;;;;;;3.90;3.60;;;;;18.80;102514.00;;;;2083458;28;20217;-68
2023/01/24 05:03:33;;;;;;;3.63;3.33;;;;;18.80;102509.00;;;;2083743;28;20644;-70
2023/01/24 05:04:34;;;;;;;3.87;3.57;;;;;18.80;102511.00;;;;2084095;28;20212;-68
2023/01/24 05:05:35;;;;;;;3.70;3.40;;;;;18.80;102513.00;;;;2083856;28;20248;-67
2023/01/24 05:06:35;;;;;;;4.27;3.87;;;;;18.80;102517.00;;;;2084484;28;20260;-67
2023/01/24 05:07:35;;;;;;;4.00;3.40;;;;;18.70;102515.00;;;;2084903;28;20210;-68
2023/01/24 05:08:36;;;;;;;4.23;3.87;;;;;18.70;102509.00;;;;2084473;28;20705;-67
2023/01/24 05:09:36;;;;;;;4.10;3.70;;;;;18.80;102512.00;;;;2084157;28;20741;-67
2023/01/24 05:10:36;;;;;;;3.80;3.50;;;;;18.80;102521.00;;;;2084336;28;20296;-68
2023/01/24 05:11:37;;;;;;;4.20;3.80;;;;;18.80;102514.00;;;;2083941;28;20721;-68
2023/01/24 05:12:38;;;;;;;3.30;3.00;;;;;18.80;102519.00;;;;2083976;28;20343;-68
2023/01/24 05:13:38;;;;;;;4.33;3.93;;;;;18.70;102521.00;;;;2083922;28;20998;-68
2023/01/24 05:14:38;;;;;;;3.60;3.30;;;;;18.70;102527.00;;;;2083905;28;20251;-68
2023/01/24 05:15:39;;;;;;;3.77;3.47;;;;;18.70;102531.00;;;;2084847;28;20222;-68
2023/01/24 05:16:39;;;;;;;3.50;3.20;;;;;18.70;102529.00;;;;2084147;28;20232;-67
2023/01/24 05:17:42;;;;;;;3.63;3.33;;;;;18.80;102528.00;;;;2083865;28;20248;-68
2023/01/24 05:18:43;;;;;;;3.88;3.58;;;;;18.70;102531.00;;;;2084067;28;20216;-68
2023/01/24 05:19:43;;;;;;;3.80;3.40;;;;;18.70;102531.00;;;;2083961;28;20220;-67
2023/01/24 05:20:43;;;;;;;3.87;3.50;;;;;18.70;102530.00;;;;2084072;28;20239;-67
2023/01/24 05:21:44;;;;;;;3.80;3.50;;;;;18.70;102528.00;;;;2084084;28;20220;-67
2023/01/24 05:22:46;;;;;;;3.87;3.47;;;;;18.70;102529.00;;;;2083821;28;20554;-68
2023/01/24 05:23:51;;;;;;;4.10;3.80;;;;;18.70;102532.00;;;;2084415;28;20217;-68
2023/01/24 05:24:51;;;;;;;4.05;3.50;;;;;18.80;102520.00;;;;2084255;28;20592;-67
2023/01/24 05:25:51;;;;;;;3.83;3.50;;;;;18.70;102520.00;;;;2084805;28;20216;-68
2023/01/24 05:26:52;;;;;;;3.97;3.57;;;;;18.70;102524.00;;;;2083032;28;20707;-67
2023/01/24 05:27:52;;;;;;;4.13;3.80;;;;;18.60;102520.00;;;;2083767;28;20605;-68
2023/01/24 05:28:53;;;;;;;3.50;3.20;;;;;18.70;102520.00;;;;2083156;28;20235;-68
2023/01/24 05:29:53;;;;;;;4.07;3.60;;;;;18.70;102530.00;;;;2083743;28;20213;-68
2023/01/24 05:30:58;;;;;;;4.10;3.67;;;;;18.70;102520.00;;;;2084282;28;20237;-67
2023/01/24 05:31:58;;;;;;;3.90;3.60;;;;;18.70;102526.00;;;;2084488;28;20639;-68
2023/01/24 05:32:58;;;;;;;4.07;3.70;;;;;18.70;102529.00;;;;2084710;28;20219;-68
2023/01/24 05:33:59;;;;;;;4.07;3.67;;;;;18.70;102530.00;;;;2084118;28;20237;-68
2023/01/24 05:34:59;;;;;;;3.70;3.40;;;;;18.70;102529.00;;;;2083906;28;20219;-68
2023/01/24 05:36:03;;;;;;;4.50;4.17;;;;;18.70;102532.00;;;;2084016;28;20224;-67
2023/01/24 05:37:04;;;;;;;3.80;3.50;;;;;18.60;102530.00;;;;2083965;28;20216;-68
2023/01/24 05:38:04;;;;;;;4.30;3.97;;;;;18.70;102540.00;;;;2083295;28;20258;-67
2023/01/24 05:39:04;;;;;;;4.00;3.67;;;;;18.60;102526.00;;;;2083820;28;20217;-68
2023/01/24 05:40:06;;;;;;;3.60;3.30;;;;;18.60;102533.00;;;;2084549;28;20213;-68
2023/01/24 05:41:07;;;;;;;3.75;3.45;;;;;18.70;102523.00;;;;2084605;28;20216;-68